< < Back
Terminal Aerodrome Forecast


Current Version              Previous Versions:   1  2  3  4  5  6  7  8  9  

Terminal Aerodrome Forecast

409
FTUS42 KTAE 301100
TAFVLD
TAF
KVLD 301139Z 3012/3112 00000KT P6SM FEW010
     FM301300 15003KT P6SM FEW030
     FM301600 16003KT P6SM VCTS SCT035CB BKN050
      TEMPO 3020/3024 5SM TSRA BKN035CB
     FM310000 15003KT P6SM BKN250=



Latest METAR

017
SAUS70 KWBC 310000 RRV
MTRVLD
METAR KVLD 302353Z AUTO 00000KT 10SM FEW070 BKN100 28/21 A3007 RMK AO2
SLP187 T02830206 10350 20283 53007 TSNO


USA.gov is the U.S. government's official web portal to all federal, state and local government web resources and services.